sensor_id;sensor_type;location;lat;lon;timestamp;temperature;humidity
56771;DHT22;42641;59.794;17.616;2022-10-23T00:01:27;6.70;99.90
56771;DHT22;42641;59.794;17.616;2022-10-23T00:03:57;6.70;99.90
56771;DHT22;42641;59.794;17.616;2022-10-23T00:06:24;6.60;99.90
56771;DHT22;42641;59.794;17.616;2022-10-23T00:08:51;6.70;99.90
56771;DHT22;42641;59.794;17.616;2022-10-23T00:11:20;6.70;99.90
56771;DHT22;42641;59.794;17.616;2022-10-23T00:13:47;6.70;99.90
56771;DHT22;42641;59.794;17.616;2022-10-23T00:16:14;6.70;99.90
56771;DHT22;42641;59.794;17.616;2022-10-23T00:18:41;6.50;99.90
56771;DHT22;42641;59.794;17.616;2022-10-23T00:21:09;6.40;99.90
56771;DHT22;42641;59.794;17.616;2022-10-23T00:23:36;6.30;99.90
56771;DHT22;42641;59.794;17.616;2022-10-23T00:26:03;6.20;99.90
56771;DHT22;42641;59.794;17.616;2022-10-23T00:28:29;6.20;99.90
56771;DHT22;42641;59.794;17.616;2022-10-23T00:31:03;6.20;99.90
56771;DHT22;42641;59.794;17.616;2022-10-23T00:33:33;6.20;99.90
56771;DHT22;42641;59.794;17.616;2022-10-23T00:36:05;6.20;99.90
56771;DHT22;42641;59.794;17.616;2022-10-23T00:38:31;6.10;99.90
56771;DHT22;42641;59.794;17.616;2022-10-23T00:40:58;6.10;99.90
56771;DHT22;42641;59.794;17.616;2022-10-23T00:43:26;6.00;99.90
56771;DHT22;42641;59.794;17.616;2022-10-23T00:45:52;5.90;99.90
56771;DHT22;42641;59.794;17.616;2022-10-23T00:48:19;5.90;99.90
56771;DHT22;42641;59.794;17.616;2022-10-23T00:50:47;5.90;99.90
56771;DHT22;42641;59.794;17.616;2022-10-23T00:53:14;5.90;99.90
56771;DHT22;42641;59.794;17.616;2022-10-23T00:55:44;6.00;99.90
56771;DHT22;42641;59.794;17.616;2022-10-23T00:58:16;5.90;99.90
56771;DHT22;42641;59.794;17.616;2022-10-23T01:00:52;5.70;99.90
56771;DHT22;42641;59.794;17.616;2022-10-23T01:03:21;5.60;99.90
56771;DHT22;42641;59.794;17.616;2022-10-23T01:06:06;5.70;99.90
56771;DHT22;42641;59.794;17.616;2022-10-23T01:11:20;5.60;99.90
56771;DHT22;42641;59.794;17.616;2022-10-23T01:16:21;5.60;99.90
56771;DHT22;42641;59.794;17.616;2022-10-23T01:18:56;5.60;99.90
56771;DHT22;42641;59.794;17.616;2022-10-23T01:21:46;5.60;99.90
56771;DHT22;42641;59.794;17.616;2022-10-23T01:24:45;5.60;99.90
56771;DHT22;42641;59.794;17.616;2022-10-23T01:27:26;5.60;99.90
56771;DHT22;42641;59.794;17.616;2022-10-23T01:35:30;5.60;99.90
56771;DHT22;42641;59.794;17.616;2022-10-23T01:38:16;5.60;99.90
56771;DHT22;42641;59.794;17.616;2022-10-23T01:41:05;5.60;99.90
56771;DHT22;42641;59.794;17.616;2022-10-23T01:43:58;5.60;99.90
56771;DHT22;42641;59.794;17.616;2022-10-23T01:46:29;5.50;99.90
56771;DHT22;42641;59.794;17.616;2022-10-23T01:48:58;5.40;99.90
56771;DHT22;42641;59.794;17.616;2022-10-23T01:51:27;5.30;99.90
56771;DHT22;42641;59.794;17.616;2022-10-23T01:53:59;5.20;99.90
56771;DHT22;42641;59.794;17.616;2022-10-23T01:56:29;5.10;99.90
56771;DHT22;42641;59.794;17.616;2022-10-23T01:59:00;5.10;99.90
56771;DHT22;42641;59.794;17.616;2022-10-23T02:01:32;5.10;99.90
56771;DHT22;42641;59.794;17.616;2022-10-23T02:04:02;5.10;99.90
56771;DHT22;42641;59.794;17.616;2022-10-23T02:06:31;5.10;99.90
56771;DHT22;42641;59.794;17.616;2022-10-23T02:08:57;5.10;99.90
56771;DHT22;42641;59.794;17.616;2022-10-23T02:11:23;5.00;99.90
56771;DHT22;42641;59.794;17.616;2022-10-23T02:14:11;5.00;99.90
56771;DHT22;42641;59.794;17.616;2022-10-23T02:16:49;4.90;99.90
56771;DHT22;42641;59.794;17.616;2022-10-23T02:22:22;4.80;99.90
56771;DHT22;42641;59.794;17.616;2022-10-23T02:24:59;4.70;99.90
56771;DHT22;42641;59.794;17.616;2022-10-23T02:27:41;4.70;99.90
56771;DHT22;42641;59.794;17.616;2022-10-23T02:30:12;4.60;99.90
56771;DHT22;42641;59.794;17.616;2022-10-23T02:32:49;4.60;99.90
56771;DHT22;42641;59.794;17.616;2022-10-23T02:35:19;4.60;99.90
56771;DHT22;42641;59.794;17.616;2022-10-23T02:37:58;4.50;99.90
56771;DHT22;42641;59.794;17.616;2022-10-23T02:40:40;4.40;99.90
56771;DHT22;42641;59.794;17.616;2022-10-23T02:43:16;4.40;99.90
56771;DHT22;42641;59.794;17.616;2022-10-23T02:46:09;4.30;99.90
56771;DHT22;42641;59.794;17.616;2022-10-23T02:49:02;4.30;99.90
56771;DHT22;42641;59.794;17.616;2022-10-23T02:57:34;4.10;99.90
56771;DHT22;42641;59.794;17.616;2022-10-23T03:02:51;4.00;99.90
56771;DHT22;42641;59.794;17.616;2022-10-23T03:05:27;3.90;99.90
56771;DHT22;42641;59.794;17.616;2022-10-23T03:07:54;3.90;99.90
56771;DHT22;42641;59.794;17.616;2022-10-23T03:10:21;3.80;99.90
56771;DHT22;42641;59.794;17.616;2022-10-23T03:12:48;3.80;99.90
56771;DHT22;42641;59.794;17.616;2022-10-23T03:15:15;3.70;99.90
56771;DHT22;42641;59.794;17.616;2022-10-23T03:17:42;3.70;99.90
56771;DHT22;42641;59.794;17.616;2022-10-23T03:20:09;3.70;99.90
56771;DHT22;42641;59.794;17.616;2022-10-23T03:22:36;3.70;99.90
56771;DHT22;42641;59.794;17.616;2022-10-23T03:25:03;3.70;99.90
56771;DHT22;42641;59.794;17.616;2022-10-23T03:27:31;3.60;99.90
56771;DHT22;42641;59.794;17.616;2022-10-23T03:30:04;3.60;99.90
56771;DHT22;42641;59.794;17.616;2022-10-23T03:32:31;3.60;99.90
56771;DHT22;42641;59.794;17.616;2022-10-23T03:34:59;3.60;99.90
56771;DHT22;42641;59.794;17.616;2022-10-23T03:37:26;3.60;99.90
56771;DHT22;42641;59.794;17.616;2022-10-23T03:39:52;3.70;99.90
56771;DHT22;42641;59.794;17.616;2022-10-23T03:42:19;3.70;99.90
56771;DHT22;42641;59.794;17.616;2022-10-23T03:44:45;3.70;99.90
56771;DHT22;42641;59.794;17.616;2022-10-23T03:47:12;3.70;99.90
56771;DHT22;42641;59.794;17.616;2022-10-23T03:49:38;3.70;99.90
56771;DHT22;42641;59.794;17.616;2022-10-23T03:52:06;3.70;99.90
56771;DHT22;42641;59.794;17.616;2022-10-23T03:54:34;3.80;99.90
56771;DHT22;42641;59.794;17.616;2022-10-23T03:57:00;3.80;99.90
56771;DHT22;42641;59.794;17.616;2022-10-23T03:59:29;3.80;99.90
56771;DHT22;42641;59.794;17.616;2022-10-23T04:01:55;3.80;99.90
56771;DHT22;42641;59.794;17.616;2022-10-23T04:04:24;3.80;99.90
56771;DHT22;42641;59.794;17.616;2022-10-23T04:06:50;3.80;99.90
56771;DHT22;42641;59.794;17.616;2022-10-23T04:09:18;3.70;99.90
56771;DHT22;42641;59.794;17.616;2022-10-23T04:11:44;3.70;99.90
56771;DHT22;42641;59.794;17.616;2022-10-23T04:14:12;3.70;99.90
56771;DHT22;42641;59.794;17.616;2022-10-23T04:16:39;3.70;99.90
56771;DHT22;42641;59.794;17.616;2022-10-23T04:19:06;3.80;99.90
56771;DHT22;42641;59.794;17.616;2022-10-23T04:21:32;3.80;99.90
56771;DHT22;42641;59.794;17.616;2022-10-23T04:24:00;3.80;99.90
56771;DHT22;42641;59.794;17.616;2022-10-23T04:26:26;3.70;99.90
56771;DHT22;42641;59.794;17.616;2022-10-23T04:28:53;3.60;99.90
56771;DHT22;42641;59.794;17.616;2022-10-23T04:31:19;3.60;99.90
56771;DHT22;42641;59.794;17.616;2022-10-23T04:33:46;3.60;99.90
56771;DHT22;42641;59.794;17.616;2022-10-23T04:36:26;3.60;99.90
56771;DHT22;42641;59.794;17.616;2022-10-23T04:38:53;3.70;99.90
56771;DHT22;42641;59.794;17.616;2022-10-23T04:41:19;3.70;99.90
56771;DHT22;42641;59.794;17.616;2022-10-23T04:43:46;3.70;99.90
56771;DHT22;42641;59.794;17.616;2022-10-23T04:46:15;3.60;99.90
56771;DHT22;42641;59.794;17.616;2022-10-23T04:48:45;3.50;99.90
56771;DHT22;42641;59.794;17.616;2022-10-23T04:51:31;3.50;99.90
56771;DHT22;42641;59.794;17.616;2022-10-23T04:54:13;3.40;99.90
56771;DHT22;42641;59.794;17.616;2022-10-23T04:56:47;3.40;99.90
56771;DHT22;42641;59.794;17.616;2022-10-23T04:59:18;3.40;99.90
56771;DHT22;42641;59.794;17.616;2022-10-23T05:01:45;3.40;99.90
56771;DHT22;42641;59.794;17.616;2022-10-23T05:04:13;3.40;99.90
56771;DHT22;42641;59.794;17.616;2022-10-23T05:07:02;3.40;99.90
56771;DHT22;42641;59.794;17.616;2022-10-23T05:09:42;3.40;99.90
56771;DHT22;42641;59.794;17.616;2022-10-23T05:12:16;3.30;99.90
56771;DHT22;42641;59.794;17.616;2022-10-23T05:14:43;3.30;99.90
56771;DHT22;42641;59.794;17.616;2022-10-23T05:17:19;3.30;99.90
56771;DHT22;42641;59.794;17.616;2022-10-23T05:19:50;3.30;99.90
56771;DHT22;42641;59.794;17.616;2022-10-23T05:22:22;3.50;99.90
56771;DHT22;42641;59.794;17.616;2022-10-23T05:24:52;3.40;99.90
56771;DHT22;42641;59.794;17.616;2022-10-23T05:27:23;3.40;99.90
56771;DHT22;42641;59.794;17.616;2022-10-23T05:29:51;3.40;99.90
56771;DHT22;42641;59.794;17.616;2022-10-23T05:32:20;3.40;99.90
56771;DHT22;42641;59.794;17.616;2022-10-23T05:34:51;3.40;99.90
56771;DHT22;42641;59.794;17.616;2022-10-23T05:37:17;3.40;99.90
56771;DHT22;42641;59.794;17.616;2022-10-23T05:39:44;3.40;99.90
56771;DHT22;42641;59.794;17.616;2022-10-23T05:42:13;3.40;99.90
56771;DHT22;42641;59.794;17.616;2022-10-23T05:44:40;3.40;99.90
56771;DHT22;42641;59.794;17.616;2022-10-23T05:47:18;3.30;99.90
56771;DHT22;42641;59.794;17.616;2022-10-23T05:50:10;3.20;99.90
56771;DHT22;42641;59.794;17.616;2022-10-23T05:52:39;3.20;99.90
56771;DHT22;42641;59.794;17.616;2022-10-23T05:55:24;3.20;99.90
56771;DHT22;42641;59.794;17.616;2022-10-23T05:58:12;3.10;99.90
56771;DHT22;42641;59.794;17.616;2022-10-23T06:01:10;3.10;99.90
56771;DHT22;42641;59.794;17.616;2022-10-23T06:03:51;3.20;99.90
56771;DHT22;42641;59.794;17.616;2022-10-23T06:06:20;3.20;99.90
56771;DHT22;42641;59.794;17.616;2022-10-23T06:08:48;3.20;99.90
56771;DHT22;42641;59.794;17.616;2022-10-23T06:11:17;3.30;99.90
56771;DHT22;42641;59.794;17.616;2022-10-23T06:13:53;3.30;99.90
56771;DHT22;42641;59.794;17.616;2022-10-23T06:16:23;3.30;99.90
56771;DHT22;42641;59.794;17.616;2022-10-23T06:18:53;3.30;99.90
56771;DHT22;42641;59.794;17.616;2022-10-23T06:21:20;3.20;99.90
56771;DHT22;42641;59.794;17.616;2022-10-23T06:23:49;3.20;99.90
56771;DHT22;42641;59.794;17.616;2022-10-23T06:26:21;3.10;99.90
56771;DHT22;42641;59.794;17.616;2022-10-23T06:29:08;3.10;99.90
56771;DHT22;42641;59.794;17.616;2022-10-23T06:31:35;3.10;99.90
56771;DHT22;42641;59.794;17.616;2022-10-23T06:34:03;3.20;99.90
56771;DHT22;42641;59.794;17.616;2022-10-23T06:36:31;3.00;99.90
56771;DHT22;42641;59.794;17.616;2022-10-23T06:39:08;2.90;99.90
56771;DHT22;42641;59.794;17.616;2022-10-23T06:41:53;2.80;99.90
56771;DHT22;42641;59.794;17.616;2022-10-23T06:44:52;2.80;99.90
56771;DHT22;42641;59.794;17.616;2022-10-23T06:47:44;2.80;99.90
56771;DHT22;42641;59.794;17.616;2022-10-23T06:50:29;2.80;99.90
56771;DHT22;42641;59.794;17.616;2022-10-23T06:52:57;2.70;99.90
56771;DHT22;42641;59.794;17.616;2022-10-23T06:55:23;2.70;99.90
56771;DHT22;42641;59.794;17.616;2022-10-23T06:57:50;2.60;99.90
56771;DHT22;42641;59.794;17.616;2022-10-23T07:00:17;2.50;99.90
56771;DHT22;42641;59.794;17.616;2022-10-23T07:02:49;2.50;99.90
56771;DHT22;42641;59.794;17.616;2022-10-23T07:05:16;2.50;99.90
56771;DHT22;42641;59.794;17.616;2022-10-23T07:07:43;2.60;99.90
56771;DHT22;42641;59.794;17.616;2022-10-23T07:10:12;2.70;99.90
56771;DHT22;42641;59.794;17.616;2022-10-23T07:12:43;2.60;99.90
56771;DHT22;42641;59.794;17.616;2022-10-23T07:15:29;2.70;99.90
56771;DHT22;42641;59.794;17.616;2022-10-23T07:17:55;2.80;99.90
56771;DHT22;42641;59.794;17.616;2022-10-23T07:20:24;2.90;99.90
56771;DHT22;42641;59.794;17.616;2022-10-23T07:22:54;2.90;99.90
56771;DHT22;42641;59.794;17.616;2022-10-23T07:25:27;3.00;99.90
56771;DHT22;42641;59.794;17.616;2022-10-23T07:27:54;3.00;99.90
56771;DHT22;42641;59.794;17.616;2022-10-23T07:30:23;3.10;99.90
56771;DHT22;42641;59.794;17.616;2022-10-23T07:32:53;3.10;99.90
56771;DHT22;42641;59.794;17.616;2022-10-23T07:35:25;3.20;99.90
56771;DHT22;42641;59.794;17.616;2022-10-23T07:38:03;3.10;99.90
56771;DHT22;42641;59.794;17.616;2022-10-23T07:40:32;3.20;99.90
56771;DHT22;42641;59.794;17.616;2022-10-23T07:42:58;3.20;99.90
56771;DHT22;42641;59.794;17.616;2022-10-23T07:45:25;3.30;99.90
56771;DHT22;42641;59.794;17.616;2022-10-23T07:47:52;3.40;99.90
56771;DHT22;42641;59.794;17.616;2022-10-23T07:50:22;3.50;99.90
56771;DHT22;42641;59.794;17.616;2022-10-23T07:52:48;3.60;99.90
56771;DHT22;42641;59.794;17.616;2022-10-23T07:55:16;3.80;99.90
56771;DHT22;42641;59.794;17.616;2022-10-23T07:57:47;3.80;99.90
56771;DHT22;42641;59.794;17.616;2022-10-23T08:00:28;3.70;99.90
56771;DHT22;42641;59.794;17.616;2022-10-23T08:03:06;3.80;99.90
56771;DHT22;42641;59.794;17.616;2022-10-23T08:05:32;3.90;99.90
56771;DHT22;42641;59.794;17.616;2022-10-23T08:08:01;3.90;99.90
56771;DHT22;42641;59.794;17.616;2022-10-23T08:10:28;4.00;99.90
56771;DHT22;42641;59.794;17.616;2022-10-23T08:12:55;4.10;99.90
56771;DHT22;42641;59.794;17.616;2022-10-23T08:15:35;4.20;99.90
56771;DHT22;42641;59.794;17.616;2022-10-23T08:18:11;4.30;99.90
56771;DHT22;42641;59.794;17.616;2022-10-23T08:20:46;4.40;99.90
56771;DHT22;42641;59.794;17.616;2022-10-23T08:23:15;4.40;99.90
56771;DHT22;42641;59.794;17.616;2022-10-23T08:25:44;4.50;99.90
56771;DHT22;42641;59.794;17.616;2022-10-23T08:28:12;4.60;99.90
56771;DHT22;42641;59.794;17.616;2022-10-23T08:30:49;4.70;99.90
56771;DHT22;42641;59.794;17.616;2022-10-23T08:33:17;4.80;99.90
56771;DHT22;42641;59.794;17.616;2022-10-23T08:35:43;5.00;99.90
56771;DHT22;42641;59.794;17.616;2022-10-23T08:38:10;5.00;99.90
56771;DHT22;42641;59.794;17.616;2022-10-23T08:40:46;5.20;99.90
56771;DHT22;42641;59.794;17.616;2022-10-23T08:43:42;5.30;99.90
56771;DHT22;42641;59.794;17.616;2022-10-23T08:46:41;5.50;99.90
56771;DHT22;42641;59.794;17.616;2022-10-23T08:55:22;5.80;99.90
56771;DHT22;42641;59.794;17.616;2022-10-23T08:57:59;5.90;99.90
56771;DHT22;42641;59.794;17.616;2022-10-23T09:00:28;5.90;99.90
56771;DHT22;42641;59.794;17.616;2022-10-23T09:02:55;6.10;99.90
56771;DHT22;42641;59.794;17.616;2022-10-23T09:05:36;6.10;99.90
56771;DHT22;42641;59.794;17.616;2022-10-23T09:08:15;6.20;99.90
56771;DHT22;42641;59.794;17.616;2022-10-23T09:22:31;6.70;99.90
56771;DHT22;42641;59.794;17.616;2022-10-23T09:24:57;6.90;99.90
56771;DHT22;42641;59.794;17.616;2022-10-23T09:27:24;7.00;99.90
56771;DHT22;42641;59.794;17.616;2022-10-23T09:29:53;7.10;99.90
56771;DHT22;42641;59.794;17.616;2022-10-23T09:32:31;7.10;99.90
56771;DHT22;42641;59.794;17.616;2022-10-23T09:34:57;7.20;99.90
56771;DHT22;42641;59.794;17.616;2022-10-23T09:37:32;7.20;99.90
56771;DHT22;42641;59.794;17.616;2022-10-23T09:40:17;7.30;99.90
56771;DHT22;42641;59.794;17.616;2022-10-23T09:42:56;7.50;99.90
56771;DHT22;42641;59.794;17.616;2022-10-23T09:45:33;7.50;99.90
56771;DHT22;42641;59.794;17.616;2022-10-23T09:48:16;7.50;99.90
56771;DHT22;42641;59.794;17.616;2022-10-23T09:50:51;7.50;99.90
56771;DHT22;42641;59.794;17.616;2022-10-23T09:55:56;7.70;99.90
56771;DHT22;42641;59.794;17.616;2022-10-23T09:58:33;7.80;99.90
56771;DHT22;42641;59.794;17.616;2022-10-23T10:01:00;7.90;99.90
56771;DHT22;42641;59.794;17.616;2022-10-23T10:03:50;7.90;99.90
56771;DHT22;42641;59.794;17.616;2022-10-23T10:06:26;8.00;99.90
56771;DHT22;42641;59.794;17.616;2022-10-23T10:08:55;8.10;99.90
56771;DHT22;42641;59.794;17.616;2022-10-23T10:13:59;8.40;99.90
56771;DHT22;42641;59.794;17.616;2022-10-23T10:22:23;8.70;99.90
56771;DHT22;42641;59.794;17.616;2022-10-23T10:25:02;8.80;99.90
56771;DHT22;42641;59.794;17.616;2022-10-23T10:27:48;8.80;99.90
56771;DHT22;42641;59.794;17.616;2022-10-23T10:30:22;8.80;99.90
56771;DHT22;42641;59.794;17.616;2022-10-23T10:33:44;8.90;99.90
56771;DHT22;42641;59.794;17.616;2022-10-23T10:44:39;9.20;99.90
56771;DHT22;42641;59.794;17.616;2022-10-23T10:47:20;9.30;99.90
56771;DHT22;42641;59.794;17.616;2022-10-23T10:52:36;9.60;99.90
56771;DHT22;42641;59.794;17.616;2022-10-23T10:55:17;9.70;99.90
56771;DHT22;42641;59.794;17.616;2022-10-23T10:58:07;9.90;99.90
56771;DHT22;42641;59.794;17.616;2022-10-23T11:00:37;10.50;99.90
56771;DHT22;42641;59.794;17.616;2022-10-23T11:05:55;11.80;99.90
56771;DHT22;42641;59.794;17.616;2022-10-23T11:08:36;12.40;99.90
56771;DHT22;42641;59.794;17.616;2022-10-23T11:11:20;12.90;99.90
56771;DHT22;42641;59.794;17.616;2022-10-23T11:13:49;13.50;99.90
56771;DHT22;42641;59.794;17.616;2022-10-23T11:16:24;13.80;99.90
56771;DHT22;42641;59.794;17.616;2022-10-23T11:21:42;14.90;99.90
56771;DHT22;42641;59.794;17.616;2022-10-23T11:35:01;16.00;99.90
56771;DHT22;42641;59.794;17.616;2022-10-23T11:37:30;16.00;99.90
56771;DHT22;42641;59.794;17.616;2022-10-23T11:42:45;16.10;99.90
56771;DHT22;42641;59.794;17.616;2022-10-23T11:45:33;16.50;99.90
56771;DHT22;42641;59.794;17.616;2022-10-23T11:48:05;16.60;99.90
56771;DHT22;42641;59.794;17.616;2022-10-23T11:58:39;15.00;99.90
56771;DHT22;42641;59.794;17.616;2022-10-23T12:04:14;14.80;99.90
56771;DHT22;42641;59.794;17.616;2022-10-23T12:06:48;14.70;99.90
56771;DHT22;42641;59.794;17.616;2022-10-23T12:09:26;14.60;99.90
56771;DHT22;42641;59.794;17.616;2022-10-23T12:14:37;15.30;99.90
56771;DHT22;42641;59.794;17.616;2022-10-23T12:19:55;14.90;99.90
56771;DHT22;42641;59.794;17.616;2022-10-23T12:22:42;14.70;99.90
56771;DHT22;42641;59.794;17.616;2022-10-23T12:25:12;14.40;99.90
56771;DHT22;42641;59.794;17.616;2022-10-23T12:30:48;14.50;99.90
56771;DHT22;42641;59.794;17.616;2022-10-23T12:38:25;14.70;99.90
56771;DHT22;42641;59.794;17.616;2022-10-23T12:41:02;14.70;99.90
56771;DHT22;42641;59.794;17.616;2022-10-23T12:43:33;14.80;99.90
56771;DHT22;42641;59.794;17.616;2022-10-23T12:46:15;14.80;99.90
56771;DHT22;42641;59.794;17.616;2022-10-23T12:48:48;14.50;99.90
56771;DHT22;42641;59.794;17.616;2022-10-23T12:51:31;14.00;99.90
56771;DHT22;42641;59.794;17.616;2022-10-23T12:53:58;13.50;99.90
56771;DHT22;42641;59.794;17.616;2022-10-23T12:56:26;13.00;99.90
56771;DHT22;42641;59.794;17.616;2022-10-23T12:58:55;13.10;99.90
56771;DHT22;42641;59.794;17.616;2022-10-23T13:01:31;13.20;99.90
56771;DHT22;42641;59.794;17.616;2022-10-23T13:04:10;13.20;99.90
56771;DHT22;42641;59.794;17.616;2022-10-23T13:06:39;13.20;99.90
56771;DHT22;42641;59.794;17.616;2022-10-23T13:09:11;13.30;99.90
56771;DHT22;42641;59.794;17.616;2022-10-23T13:12:01;13.20;99.90
56771;DHT22;42641;59.794;17.616;2022-10-23T13:14:36;13.10;99.90
56771;DHT22;42641;59.794;17.616;2022-10-23T13:17:09;12.90;99.90
56771;DHT22;42641;59.794;17.616;2022-10-23T13:19:36;12.90;99.90
56771;DHT22;42641;59.794;17.616;2022-10-23T13:22:22;12.80;99.90
56771;DHT22;42641;59.794;17.616;2022-10-23T13:24:49;12.70;99.90
56771;DHT22;42641;59.794;17.616;2022-10-23T13:27:30;12.60;99.90
56771;DHT22;42641;59.794;17.616;2022-10-23T13:29:58;12.50;99.90
56771;DHT22;42641;59.794;17.616;2022-10-23T13:32:28;12.70;99.90
56771;DHT22;42641;59.794;17.616;2022-10-23T13:34:56;12.80;99.90
56771;DHT22;42641;59.794;17.616;2022-10-23T13:37:26;12.80;99.90
56771;DHT22;42641;59.794;17.616;2022-10-23T13:40:00;12.70;99.90
56771;DHT22;42641;59.794;17.616;2022-10-23T13:42:27;12.50;99.90
56771;DHT22;42641;59.794;17.616;2022-10-23T13:44:54;12.40;99.90
56771;DHT22;42641;59.794;17.616;2022-10-23T13:47:20;12.30;99.90
56771;DHT22;42641;59.794;17.616;2022-10-23T13:49:47;12.20;99.90
56771;DHT22;42641;59.794;17.616;2022-10-23T13:52:18;12.10;99.90
56771;DHT22;42641;59.794;17.616;2022-10-23T13:54:45;11.80;99.90
56771;DHT22;42641;59.794;17.616;2022-10-23T13:57:14;11.70;99.90
56771;DHT22;42641;59.794;17.616;2022-10-23T13:59:41;11.60;99.90
56771;DHT22;42641;59.794;17.616;2022-10-23T14:02:21;11.50;99.90
56771;DHT22;42641;59.794;17.616;2022-10-23T14:04:49;11.40;99.90
56771;DHT22;42641;59.794;17.616;2022-10-23T14:07:15;11.30;99.90
56771;DHT22;42641;59.794;17.616;2022-10-23T14:09:42;11.30;99.90
56771;DHT22;42641;59.794;17.616;2022-10-23T14:12:09;11.20;99.90
56771;DHT22;42641;59.794;17.616;2022-10-23T14:14:37;11.20;99.90
56771;DHT22;42641;59.794;17.616;2022-10-23T14:17:03;11.10;99.90
56771;DHT22;42641;59.794;17.616;2022-10-23T14:19:32;11.00;99.90
56771;DHT22;42641;59.794;17.616;2022-10-23T14:21:58;10.90;99.90
56771;DHT22;42641;59.794;17.616;2022-10-23T14:24:25;10.90;99.90
56771;DHT22;42641;59.794;17.616;2022-10-23T14:26:51;10.80;99.90
56771;DHT22;42641;59.794;17.616;2022-10-23T14:29:18;10.70;99.90
56771;DHT22;42641;59.794;17.616;2022-10-23T14:31:44;10.60;99.90
56771;DHT22;42641;59.794;17.616;2022-10-23T14:34:11;10.60;99.90
56771;DHT22;42641;59.794;17.616;2022-10-23T14:36:38;10.50;99.90
56771;DHT22;42641;59.794;17.616;2022-10-23T14:39:04;10.40;99.90
56771;DHT22;42641;59.794;17.616;2022-10-23T14:41:31;10.40;99.90
56771;DHT22;42641;59.794;17.616;2022-10-23T14:43:57;10.30;99.90
56771;DHT22;42641;59.794;17.616;2022-10-23T14:46:24;10.20;99.90
56771;DHT22;42641;59.794;17.616;2022-10-23T14:48:52;10.20;99.90
56771;DHT22;42641;59.794;17.616;2022-10-23T14:51:21;10.10;99.90
56771;DHT22;42641;59.794;17.616;2022-10-23T14:53:53;10.00;99.90
56771;DHT22;42641;59.794;17.616;2022-10-23T14:56:20;9.90;99.90
56771;DHT22;42641;59.794;17.616;2022-10-23T14:58:46;9.80;99.90
56771;DHT22;42641;59.794;17.616;2022-10-23T15:01:12;9.60;99.90
56771;DHT22;42641;59.794;17.616;2022-10-23T15:03:39;9.50;99.90
56771;DHT22;42641;59.794;17.616;2022-10-23T15:06:06;9.40;99.90
56771;DHT22;42641;59.794;17.616;2022-10-23T15:08:33;9.40;99.90
56771;DHT22;42641;59.794;17.616;2022-10-23T15:11:01;9.40;99.90
56771;DHT22;42641;59.794;17.616;2022-10-23T15:13:28;9.40;99.90
56771;DHT22;42641;59.794;17.616;2022-10-23T15:16:03;9.30;99.90
56771;DHT22;42641;59.794;17.616;2022-10-23T15:18:29;9.30;99.90
56771;DHT22;42641;59.794;17.616;2022-10-23T15:20:56;9.20;99.90
56771;DHT22;42641;59.794;17.616;2022-10-23T15:23:22;9.10;99.90
56771;DHT22;42641;59.794;17.616;2022-10-23T15:25:57;9.00;99.90
56771;DHT22;42641;59.794;17.616;2022-10-23T15:28:24;8.90;99.90
56771;DHT22;42641;59.794;17.616;2022-10-23T15:30:50;8.90;99.90
56771;DHT22;42641;59.794;17.616;2022-10-23T15:33:17;9.00;99.90
56771;DHT22;42641;59.794;17.616;2022-10-23T15:35:43;8.90;99.90
56771;DHT22;42641;59.794;17.616;2022-10-23T15:38:10;8.90;99.90
56771;DHT22;42641;59.794;17.616;2022-10-23T15:40:37;8.90;99.90
56771;DHT22;42641;59.794;17.616;2022-10-23T15:43:03;8.80;99.90
56771;DHT22;42641;59.794;17.616;2022-10-23T15:45:30;8.80;99.90
56771;DHT22;42641;59.794;17.616;2022-10-23T15:47:56;8.90;99.90
56771;DHT22;42641;59.794;17.616;2022-10-23T15:50:23;8.90;99.90
56771;DHT22;42641;59.794;17.616;2022-10-23T15:52:50;8.90;99.90
56771;DHT22;42641;59.794;17.616;2022-10-23T15:55:19;8.90;99.90
56771;DHT22;42641;59.794;17.616;2022-10-23T15:57:45;8.80;99.90
56771;DHT22;42641;59.794;17.616;2022-10-23T16:00:12;8.70;99.90
56771;DHT22;42641;59.794;17.616;2022-10-23T16:02:41;8.60;99.90
56771;DHT22;42641;59.794;17.616;2022-10-23T16:05:08;8.60;99.90
56771;DHT22;42641;59.794;17.616;2022-10-23T16:07:34;8.60;99.90
56771;DHT22;42641;59.794;17.616;2022-10-23T16:10:01;8.60;99.90
56771;DHT22;42641;59.794;17.616;2022-10-23T16:12:27;8.60;99.90
56771;DHT22;42641;59.794;17.616;2022-10-23T16:14:53;8.70;99.90
56771;DHT22;42641;59.794;17.616;2022-10-23T16:17:20;8.70;99.90
56771;DHT22;42641;59.794;17.616;2022-10-23T16:19:46;8.60;99.90
56771;DHT22;42641;59.794;17.616;2022-10-23T16:22:13;8.60;99.90
56771;DHT22;42641;59.794;17.616;2022-10-23T16:24:41;8.50;99.90
56771;DHT22;42641;59.794;17.616;2022-10-23T16:27:07;8.40;99.90
56771;DHT22;42641;59.794;17.616;2022-10-23T16:29:34;8.30;99.90
56771;DHT22;42641;59.794;17.616;2022-10-23T16:32:00;8.40;99.90
56771;DHT22;42641;59.794;17.616;2022-10-23T16:34:26;8.30;99.90
56771;DHT22;42641;59.794;17.616;2022-10-23T16:36:53;8.20;99.90
56771;DHT22;42641;59.794;17.616;2022-10-23T16:39:52;8.20;99.90
56771;DHT22;42641;59.794;17.616;2022-10-23T16:42:37;8.20;99.90
56771;DHT22;42641;59.794;17.616;2022-10-23T16:45:11;8.20;99.90
56771;DHT22;42641;59.794;17.616;2022-10-23T16:47:38;8.20;99.90
56771;DHT22;42641;59.794;17.616;2022-10-23T16:50:04;8.20;99.90
56771;DHT22;42641;59.794;17.616;2022-10-23T16:52:31;8.10;99.90
56771;DHT22;42641;59.794;17.616;2022-10-23T16:54:58;8.20;99.90
56771;DHT22;42641;59.794;17.616;2022-10-23T16:57:24;8.20;99.90
56771;DHT22;42641;59.794;17.616;2022-10-23T16:59:53;8.10;99.90
56771;DHT22;42641;59.794;17.616;2022-10-23T17:02:20;8.10;99.90
56771;DHT22;42641;59.794;17.616;2022-10-23T17:04:46;8.00;99.90
56771;DHT22;42641;59.794;17.616;2022-10-23T17:07:12;8.10;99.90
56771;DHT22;42641;59.794;17.616;2022-10-23T17:09:39;8.10;99.90
56771;DHT22;42641;59.794;17.616;2022-10-23T17:12:06;8.10;99.90
56771;DHT22;42641;59.794;17.616;2022-10-23T17:14:33;8.10;99.90
56771;DHT22;42641;59.794;17.616;2022-10-23T17:17:00;8.10;99.90
56771;DHT22;42641;59.794;17.616;2022-10-23T17:19:27;8.10;99.90
56771;DHT22;42641;59.794;17.616;2022-10-23T17:21:54;8.20;99.90
56771;DHT22;42641;59.794;17.616;2022-10-23T17:24:22;8.10;99.90
56771;DHT22;42641;59.794;17.616;2022-10-23T17:26:48;8.10;99.90
56771;DHT22;42641;59.794;17.616;2022-10-23T17:29:15;8.10;99.90
56771;DHT22;42641;59.794;17.616;2022-10-23T17:31:44;8.10;99.90
56771;DHT22;42641;59.794;17.616;2022-10-23T17:34:13;8.10;99.90
56771;DHT22;42641;59.794;17.616;2022-10-23T17:36:42;8.10;99.90
56771;DHT22;42641;59.794;17.616;2022-10-23T17:39:11;8.20;99.90
56771;DHT22;42641;59.794;17.616;2022-10-23T17:41:38;8.10;99.90